createdAt,value
2018-06-21T00:00:04.060Z,42.20
2018-06-21T00:01:04.038Z,41.00
2018-06-21T00:02:04.016Z,46.30
2018-06-21T00:03:03.979Z,43.10
2018-06-21T00:04:03.978Z,44.30
2018-06-21T00:05:03.959Z,47.00
2018-06-21T00:06:03.930Z,39.50
2018-06-21T00:07:03.913Z,47.40
2018-06-21T00:08:03.887Z,45.90
2018-06-21T00:09:03.853Z,68.60
2018-06-21T00:10:03.834Z,45.60
2018-06-21T00:11:03.823Z,59.90
2018-06-21T00:12:03.809Z,55.50
2018-06-21T00:13:03.785Z,65.10
2018-06-21T00:14:03.765Z,53.00
2018-06-21T00:15:03.723Z,52.90
2018-06-21T00:16:03.703Z,53.90
2018-06-21T00:17:03.681Z,43.80
2018-06-21T00:18:03.663Z,48.10
2018-06-21T00:19:03.659Z,47.10
2018-06-21T00:20:03.625Z,54.50
2018-06-21T00:21:03.603Z,46.20
2018-06-21T00:22:03.573Z,50.70
2018-06-21T00:23:03.576Z,54.20
2018-06-21T00:24:03.546Z,56.60
2018-06-21T00:25:03.525Z,48.10
2018-06-21T00:26:03.502Z,54.20
2018-06-21T00:27:03.483Z,43.30
2018-06-21T00:28:03.447Z,54.90
2018-06-21T00:29:03.439Z,43.90
2018-06-21T00:30:03.397Z,47.70
2018-06-21T00:31:03.393Z,47.70
2018-06-21T00:32:03.370Z,50.00
2018-06-21T00:33:03.336Z,47.00
2018-06-21T00:34:03.329Z,47.00
2018-06-21T00:35:03.307Z,46.90
2018-06-21T00:36:03.284Z,50.30
2018-06-21T00:37:36.476Z,43.40
2018-06-21T00:38:03.223Z,44.60
2018-06-21T00:39:03.213Z,54.00
2018-06-21T00:40:03.174Z,46.70
2018-06-21T00:41:03.150Z,47.60
2018-06-21T00:42:03.153Z,44.60
2018-06-21T00:43:03.132Z,51.80
2018-06-21T00:44:03.086Z,47.60
2018-06-21T00:45:03.068Z,44.30
2018-06-21T00:46:03.071Z,47.00
2018-06-21T00:47:03.046Z,46.30
2018-06-21T00:48:03.027Z,46.60
2018-06-21T00:49:02.985Z,49.70
2018-06-21T00:50:02.981Z,45.30
2018-06-21T00:51:02.964Z,49.50
2018-06-21T00:52:02.942Z,45.60
2018-06-21T00:53:02.917Z,49.50
2018-06-21T00:54:02.867Z,47.60
2018-06-21T00:55:02.874Z,52.10
2018-06-21T00:56:02.850Z,48.00
2018-06-21T00:57:02.812Z,49.10
2018-06-21T00:58:02.789Z,46.00
2018-06-21T00:59:02.757Z,57.50
2018-06-21T01:00:02.741Z,50.70
2018-06-21T01:01:02.729Z,50.40
2018-06-21T01:02:02.693Z,55.90
2018-06-21T01:03:02.706Z,55.50
2018-06-21T01:04:02.659Z,50.40
2018-06-21T01:05:02.638Z,52.70
2018-06-21T01:06:02.635Z,54.60
2018-06-21T01:07:02.589Z,54.60
2018-06-21T01:08:02.567Z,57.00
2018-06-21T01:09:02.543Z,51.50
2018-06-21T01:10:02.549Z,56.70
2018-06-21T01:11:02.523Z,56.70
2018-06-21T01:12:02.488Z,53.40
2018-06-21T01:13:02.483Z,55.30
2018-06-21T01:14:02.460Z,56.60
2018-06-21T01:15:02.430Z,57.20
2018-06-21T01:16:02.389Z,55.90
2018-06-21T01:17:02.397Z,58.00
2018-06-21T01:18:02.360Z,59.20
2018-06-21T01:19:02.352Z,58.60
2018-06-21T01:20:02.331Z,55.10
2018-06-21T01:21:02.311Z,56.90
2018-06-21T01:22:02.283Z,62.80
2018-06-21T01:23:02.231Z,54.60
2018-06-21T01:24:02.223Z,56.10
2018-06-21T01:25:02.222Z,63.70
2018-06-21T01:26:02.196Z,52.40
2018-06-21T01:27:02.177Z,52.00
2018-06-21T01:28:02.154Z,57.80
2018-06-21T01:29:02.106Z,59.40
2018-06-21T01:30:02.083Z,62.70
2018-06-21T01:31:02.091Z,59.60
2018-06-21T01:32:02.068Z,62.90
2018-06-21T01:33:02.047Z,60.20
2018-06-21T01:34:02.027Z,61.00
2018-06-21T01:35:01.977Z,60.70
2018-06-21T01:36:01.955Z,65.80
2018-06-21T01:37:01.955Z,60.80
2018-06-21T01:38:01.941Z,58.20
2018-06-21T01:39:01.893Z,63.90
2018-06-21T01:40:01.873Z,60.70
2018-06-21T01:41:01.870Z,63.70
2018-06-21T01:42:01.846Z,65.70
2018-06-21T01:43:01.795Z,66.60
2018-06-21T01:44:01.802Z,63.50
2018-06-21T01:45:01.768Z,63.80
2018-06-21T01:46:01.736Z,62.40
2018-06-21T01:47:01.708Z,61.50
2018-06-21T01:48:01.714Z,58.70
2018-06-21T01:49:01.681Z,63.10
2018-06-21T01:50:01.669Z,64.00
2018-06-21T01:51:01.650Z,65.60
2018-06-21T01:52:01.639Z,63.00
2018-06-21T01:53:01.578Z,63.50
2018-06-21T01:54:01.564Z,63.00
2018-06-21T01:55:01.541Z,65.50
2018-06-21T01:56:01.538Z,67.20
2018-06-21T01:57:01.491Z,68.40
2018-06-21T01:58:01.462Z,67.60
2018-06-21T01:59:01.450Z,66.70
2018-06-21T02:00:01.432Z,65.10
2018-06-21T02:01:01.432Z,63.30
2018-06-21T02:02:01.405Z,71.40
2018-06-21T02:03:01.358Z,65.10
2018-06-21T02:04:01.353Z,69.30
2018-06-21T02:05:01.342Z,67.80
2018-06-21T02:06:01.294Z,69.40
2018-06-21T02:07:01.295Z,69.20
2018-06-21T02:08:01.315Z,64.50
2018-06-21T02:09:01.259Z,71.00
2018-06-21T02:10:01.208Z,64.60
2018-06-21T02:11:01.185Z,70.00
2018-06-21T02:12:01.163Z,66.80
2018-06-21T02:13:01.152Z,64.40
2018-06-21T02:14:01.121Z,67.30
2018-06-21T02:15:01.095Z,65.30
2018-06-21T02:16:01.078Z,67.70
2018-06-21T02:17:01.052Z,72.30
2018-06-21T02:18:01.029Z,64.90
2018-06-21T02:19:01.033Z,65.20
2018-06-21T02:20:00.991Z,62.00
2018-06-21T02:21:00.994Z,73.80
2018-06-21T02:22:00.971Z,69.50
2018-06-21T02:23:00.922Z,70.20
2018-06-21T02:24:00.922Z,76.20
2018-06-21T02:25:00.877Z,71.10
2018-06-21T02:26:00.881Z,69.90
2018-06-21T02:27:00.857Z,69.30
2018-06-21T02:28:00.836Z,78.60
2018-06-21T02:29:00.811Z,78.80
2018-06-21T02:30:00.774Z,68.80
2018-06-21T02:31:00.766Z,79.60
2018-06-21T02:32:00.754Z,71.00
2018-06-21T02:33:00.723Z,73.70
2018-06-21T02:34:00.704Z,75.00
2018-06-21T02:35:00.649Z,84.00
2018-06-21T02:36:00.636Z,83.40
2018-06-21T02:37:00.635Z,78.80
2018-06-21T02:38:00.591Z,80.50
2018-06-21T02:39:00.564Z,82.60
2018-06-21T02:40:00.550Z,79.70
2018-06-21T02:41:00.520Z,76.20
2018-06-21T02:42:00.498Z,88.40
2018-06-21T02:43:00.478Z,79.10
2018-06-21T02:44:00.459Z,88.30
2018-06-21T02:45:00.433Z,83.70
2018-06-21T02:46:00.412Z,78.80
2018-06-21T02:47:00.395Z,77.50
2018-06-21T02:48:00.368Z,78.80
2018-06-21T02:49:00.374Z,76.00
2018-06-21T02:50:00.321Z,75.10
2018-06-21T02:51:00.302Z,78.60
2018-06-21T02:52:00.282Z,81.70
2018-06-21T02:53:00.282Z,78.50
2018-06-21T02:54:00.258Z,83.40
2018-06-21T02:55:00.213Z,78.40
2018-06-21T02:56:00.200Z,82.00
2018-06-21T02:57:00.192Z,83.20
2018-06-21T02:58:00.144Z,84.50
2018-06-21T02:59:00.123Z,80.50
2018-06-21T03:00:00.105Z,87.00
2018-06-21T03:01:00.154Z,81.00
2018-06-21T03:02:00.056Z,84.60
2018-06-21T03:03:00.038Z,81.80
2018-06-21T03:04:00.080Z,81.50
2018-06-21T03:04:59.993Z,82.90
2018-06-21T03:05:59.981Z,87.60
2018-06-21T03:06:59.945Z,77.10
2018-06-21T03:07:59.925Z,78.70
2018-06-21T03:08:59.929Z,82.80
2018-06-21T03:09:59.883Z,82.30
2018-06-21T03:10:59.895Z,83.10
2018-06-21T03:11:59.864Z,85.60
2018-06-21T03:12:59.814Z,82.20
2018-06-21T03:13:59.815Z,82.70
2018-06-21T03:14:59.794Z,88.60
2018-06-21T03:15:59.771Z,89.60
2018-06-21T03:16:59.727Z,81.50
2018-06-21T03:17:59.697Z,91.20
2018-06-21T03:18:59.679Z,94.00
2018-06-21T03:19:59.670Z,96.40
2018-06-21T03:20:59.642Z,91.70
2018-06-21T03:21:59.663Z,93.80
2018-06-21T03:22:59.597Z,95.10
2018-06-21T03:23:59.593Z,89.80
2018-06-21T03:24:59.549Z,94.00
2018-06-21T03:25:59.551Z,85.40
2018-06-21T03:26:59.505Z,90.20
2018-06-21T03:27:59.482Z,93.50
2018-06-21T03:28:59.486Z,85.30
2018-06-21T03:29:59.465Z,85.00
2018-06-21T03:30:59.416Z,86.30
2018-06-21T03:31:59.420Z,86.20
2018-06-21T03:32:59.371Z,81.00
2018-06-21T03:33:59.358Z,89.70
2018-06-21T03:34:59.340Z,78.00
2018-06-21T03:35:59.315Z,91.90
2018-06-21T03:36:59.288Z,95.30
2018-06-21T03:37:59.264Z,95.80
2018-06-21T03:38:59.237Z,94.30
2018-06-21T03:39:59.229Z,98.60
2018-06-21T03:40:59.202Z,84.90
2018-06-21T03:41:59.179Z,79.30
2018-06-21T03:42:59.159Z,81.10
2018-06-21T03:43:59.129Z,83.90
2018-06-21T03:44:59.102Z,83.20
2018-06-21T03:45:59.081Z,96.40
2018-06-21T03:46:59.061Z,103.10
2018-06-21T03:47:59.045Z,105.00
2018-06-21T03:48:59.022Z,105.40
2018-06-21T03:49:58.991Z,94.80
2018-06-21T03:50:58.971Z,92.50
2018-06-21T03:51:58.949Z,96.60
2018-06-21T03:52:58.949Z,84.20
2018-06-21T03:53:58.927Z,95.40
2018-06-21T03:54:58.905Z,84.50
2018-06-21T03:55:58.871Z,82.20
2018-06-21T03:56:58.860Z,78.60
2018-06-21T03:57:58.812Z,94.10
2018-06-21T03:58:58.819Z,84.00
2018-06-21T03:59:58.763Z,89.20
2018-06-21T04:00:58.745Z,97.30
2018-06-21T04:01:58.738Z,94.90
2018-06-21T04:02:58.720Z,100.00
2018-06-21T04:03:58.680Z,113.90
2018-06-21T04:04:58.666Z,120.90
2018-06-21T04:05:58.660Z,107.30
2018-06-21T04:06:58.688Z,102.40
2018-06-21T04:07:58.591Z,100.60
2018-06-21T04:08:58.568Z,99.00
2018-06-21T04:09:58.543Z,95.60
2018-06-21T04:10:58.551Z,99.10
2018-06-21T04:11:58.503Z,103.90
2018-06-21T04:12:58.502Z,100.20
2018-06-21T04:13:58.478Z,107.60
2018-06-21T04:14:58.456Z,105.10
2018-06-21T04:15:58.408Z,118.10
2018-06-21T04:16:58.386Z,108.40
2018-06-21T04:17:58.390Z,118.00
2018-06-21T04:18:58.340Z,113.50
2018-06-21T04:19:58.318Z,99.50
2018-06-21T04:20:58.322Z,116.60
2018-06-21T04:21:58.304Z,128.00
2018-06-21T04:22:58.250Z,123.30
2018-06-21T04:23:58.236Z,135.50
2018-06-21T04:24:58.214Z,121.60
2018-06-21T04:25:58.209Z,119.90
2018-06-21T04:26:58.185Z,121.90
2018-06-21T04:27:58.147Z,119.10
2018-06-21T04:28:58.133Z,115.70
2018-06-21T04:29:58.121Z,131.30
2018-06-21T04:30:58.071Z,134.70
2018-06-21T04:31:58.076Z,137.10
2018-06-21T04:32:58.057Z,129.60
2018-06-21T04:33:58.010Z,134.20
2018-06-21T04:34:57.989Z,127.00
2018-06-21T04:35:57.962Z,126.20
2018-06-21T04:36:57.946Z,117.00
2018-06-21T04:37:57.973Z,121.90
2018-06-21T04:38:57.916Z,110.80
2018-06-21T04:39:57.869Z,112.70
2018-06-21T04:40:57.849Z,119.60
2018-06-21T04:41:57.822Z,111.90
2018-06-21T04:42:57.824Z,124.20
2018-06-21T04:43:57.802Z,112.00
2018-06-21T04:44:57.781Z,117.10
2018-06-21T04:45:57.741Z,115.50
2018-06-21T04:46:57.723Z,115.70
2018-06-21T04:47:57.687Z,114.50
2018-06-21T04:48:57.690Z,112.40
2018-06-21T04:49:57.642Z,112.30
2018-06-21T04:50:57.645Z,116.10
2018-06-21T04:51:57.596Z,117.20
2018-06-21T04:52:57.578Z,120.70
2018-06-21T04:53:57.545Z,125.50
2018-06-21T04:54:57.531Z,124.00
2018-06-21T04:55:57.502Z,130.20
2018-06-21T04:56:57.514Z,123.00
2018-06-21T04:57:57.458Z,115.90
2018-06-21T04:58:57.448Z,107.80
2018-06-21T04:59:57.431Z,99.80
2018-06-21T05:00:57.420Z,100.50
2018-06-21T05:01:57.370Z,98.90
2018-06-21T05:02:57.355Z,105.70
2018-06-21T05:03:57.351Z,111.80
2018-06-21T05:04:57.307Z,117.70
2018-06-21T05:05:57.297Z,116.60
2018-06-21T05:06:57.262Z,112.40
2018-06-21T05:07:57.235Z,128.30
2018-06-21T05:08:57.244Z,118.60
2018-06-21T05:09:57.188Z,115.10
2018-06-21T05:10:57.163Z,110.90
2018-06-21T05:11:57.147Z,118.20
2018-06-21T05:12:57.148Z,127.90
2018-06-21T05:13:57.096Z,120.70
2018-06-21T05:14:57.072Z,126.40
2018-06-21T05:15:57.080Z,134.10
2018-06-21T05:16:57.032Z,132.20
2018-06-21T05:17:57.012Z,129.60
2018-06-21T05:18:57.020Z,139.60
2018-06-21T05:19:56.971Z,133.30
2018-06-21T05:20:56.940Z,134.60
2018-06-21T05:21:56.918Z,130.20
2018-06-21T05:22:56.919Z,145.10
2018-06-21T05:23:56.871Z,147.80
2018-06-21T05:24:56.876Z,143.60
2018-06-21T05:25:56.844Z,143.20
2018-06-21T05:26:56.828Z,136.10
2018-06-21T05:27:56.805Z,140.30
2018-06-21T05:28:56.786Z,139.70
2018-06-21T05:29:56.733Z,138.40
2018-06-21T05:30:56.719Z,123.50
2018-06-21T05:31:56.714Z,123.90
2018-06-21T05:32:56.695Z,136.00
2018-06-21T05:33:56.673Z,121.00
2018-06-21T05:34:56.646Z,122.00
2018-06-21T05:35:56.609Z,126.60
2018-06-21T05:36:56.604Z,143.30
2018-06-21T05:37:56.549Z,140.40
2018-06-21T05:38:56.558Z,145.20
2018-06-21T05:39:56.501Z,144.30
2018-06-21T05:40:56.508Z,159.60
2018-06-21T05:41:56.476Z,141.80
2018-06-21T05:42:56.448Z,150.00
2018-06-21T05:43:56.412Z,149.80
2018-06-21T05:44:56.418Z,153.70
2018-06-21T05:45:56.393Z,152.50
2018-06-21T05:46:56.374Z,151.20
2018-06-21T05:47:56.329Z,145.10
2018-06-21T05:48:56.296Z,151.90
2018-06-21T05:49:56.286Z,141.40
2018-06-21T05:50:56.261Z,152.50
2018-06-21T05:51:56.230Z,148.10
2018-06-21T05:52:56.215Z,147.30
2018-06-21T05:53:56.183Z,153.00
2018-06-21T05:54:56.170Z,154.20
2018-06-21T05:55:56.149Z,147.20
2018-06-21T05:56:56.118Z,146.00
2018-06-21T05:57:56.089Z,147.50
2018-06-21T05:58:56.072Z,145.30
2018-06-21T05:59:56.078Z,150.70
2018-06-21T06:00:56.026Z,150.10
2018-06-21T06:01:56.000Z,145.40
2018-06-21T06:02:55.988Z,153.00
2018-06-21T06:03:55.956Z,162.40
2018-06-21T06:04:55.931Z,170.00
2018-06-21T06:05:55.941Z,172.00
2018-06-21T06:06:55.909Z,186.90
2018-06-21T06:07:55.865Z,190.10
2018-06-21T06:08:55.853Z,187.60
2018-06-21T06:09:55.841Z,206.20
2018-06-21T06:10:55.796Z,179.60
2018-06-21T06:11:55.763Z,190.00
2018-06-21T06:12:55.759Z,143.50
2018-06-21T06:13:55.729Z,148.50
2018-06-21T06:14:55.727Z,145.50
2018-06-21T06:15:55.689Z,133.80
2018-06-21T06:16:55.682Z,140.80
2018-06-21T06:17:55.631Z,127.40
2018-06-21T06:18:55.610Z,121.00
2018-06-21T06:19:55.590Z,122.90
2018-06-21T06:20:55.568Z,117.50
2018-06-21T06:21:55.568Z,118.00
2018-06-21T06:22:55.520Z,110.70
2018-06-21T06:23:55.493Z,118.60
2018-06-21T06:24:55.487Z,119.70
2018-06-21T06:25:55.471Z,121.30
2018-06-21T06:26:55.450Z,118.00
2018-06-21T06:27:55.432Z,120.70
2018-06-21T06:28:55.376Z,133.90
2018-06-21T06:29:55.360Z,133.50
2018-06-21T06:30:55.335Z,150.50
2018-06-21T06:31:55.307Z,134.50
2018-06-21T06:32:55.288Z,132.90
2018-06-21T06:33:55.281Z,146.50
2018-06-21T06:34:55.258Z,147.60
2018-06-21T06:35:55.221Z,139.60
2018-06-21T06:36:55.197Z,136.20
2018-06-21T06:37:55.180Z,131.00
2018-06-21T06:38:55.178Z,123.60
2018-06-21T06:39:55.128Z,116.80
2018-06-21T06:40:55.132Z,120.00
2018-06-21T06:41:55.086Z,131.00
2018-06-21T06:42:55.068Z,133.20
2018-06-21T06:43:55.037Z,120.50
2018-06-21T06:44:55.018Z,129.40
2018-06-21T06:45:54.994Z,111.70
2018-06-21T06:46:54.994Z,116.70
2018-06-21T06:47:54.945Z,105.30
2018-06-21T06:48:54.935Z,107.40
2018-06-21T06:49:54.926Z,108.40
2018-06-21T06:50:54.902Z,115.80
2018-06-21T06:51:54.858Z,116.50
2018-06-21T06:52:54.861Z,113.20
2018-06-21T06:53:54.818Z,109.10
2018-06-21T06:54:54.811Z,118.90
2018-06-21T06:55:54.776Z,108.60
2018-06-21T06:56:54.743Z,120.60
2018-06-21T06:57:54.750Z,116.80
2018-06-21T06:58:54.709Z,117.60
2018-06-21T06:59:54.674Z,112.70
2018-06-21T07:00:54.679Z,121.10
2018-06-21T07:01:54.652Z,120.50
2018-06-21T07:02:54.628Z,119.30
2018-06-21T07:03:54.576Z,117.30
2018-06-21T07:04:54.556Z,111.10
2018-06-21T07:05:54.561Z,119.60
2018-06-21T07:06:54.538Z,112.40
2018-06-21T07:07:54.489Z,120.30
2018-06-21T07:08:54.466Z,115.90
2018-06-21T07:09:54.467Z,114.00
2018-06-21T07:10:54.424Z,112.80
2018-06-21T07:11:54.425Z,119.30
2018-06-21T07:12:54.398Z,124.40
2018-06-21T07:13:54.373Z,109.10
2018-06-21T07:14:54.326Z,113.30
2018-06-21T07:15:54.340Z,119.90
2018-06-21T07:16:54.286Z,123.70
2018-06-21T07:17:54.254Z,120.50
2018-06-21T07:18:54.242Z,129.10
2018-06-21T07:19:54.222Z,123.40
2018-06-21T07:20:54.201Z,135.60
2018-06-21T07:21:54.168Z,134.80
2018-06-21T07:22:54.148Z,142.00
2018-06-21T07:23:54.130Z,149.10
2018-06-21T07:24:54.093Z,138.70
2018-06-21T07:25:54.081Z,144.60
2018-06-21T07:26:54.063Z,144.40
2018-06-21T07:27:54.054Z,147.90
2018-06-21T07:28:54.004Z,156.60
2018-06-21T07:29:54.002Z,160.30
2018-06-21T07:30:53.983Z,168.70
2018-06-21T07:31:53.945Z,166.90
2018-06-21T07:32:53.931Z,153.20
2018-06-21T07:33:53.887Z,159.80
2018-06-21T07:34:53.890Z,156.50
2018-06-21T07:35:53.839Z,157.80
2018-06-21T07:36:53.817Z,142.40
2018-06-21T07:37:53.817Z,144.20
2018-06-21T07:38:53.858Z,131.90
2018-06-21T07:39:53.756Z,136.20
2018-06-21T07:40:53.753Z,135.10
2018-06-21T07:41:53.710Z,134.80
2018-06-21T07:42:53.678Z,132.20
2018-06-21T07:43:53.683Z,137.90
2018-06-21T07:44:53.662Z,140.20
2018-06-21T07:45:53.608Z,129.50
2018-06-21T07:46:53.647Z,145.00
2018-06-21T07:47:53.564Z,139.00
2018-06-21T07:48:53.563Z,143.00
2018-06-21T07:49:53.514Z,130.20
2018-06-21T07:50:53.490Z,145.00
2018-06-21T07:51:53.485Z,149.60
2018-06-21T07:52:53.446Z,142.10
2018-06-21T07:53:53.505Z,155.00
2018-06-21T07:54:53.403Z,148.80
2018-06-21T07:55:53.375Z,148.70
2018-06-21T07:56:53.382Z,148.70
2018-06-21T07:57:53.342Z,145.90
2018-06-21T07:58:53.318Z,165.80
2018-06-21T07:59:53.288Z,158.00
2018-06-21T08:00:53.265Z,154.40
2018-06-21T08:01:53.246Z,161.10
2018-06-21T08:02:53.211Z,172.40
2018-06-21T08:03:53.182Z,155.90
2018-06-21T08:04:53.164Z,161.90
2018-06-21T08:05:53.171Z,166.20
2018-06-21T08:06:53.112Z,143.30
2018-06-21T08:07:53.093Z,151.10
2018-06-21T08:08:53.101Z,140.70
2018-06-21T08:09:53.072Z,154.10
2018-06-21T08:10:53.056Z,161.10
2018-06-21T08:11:53.013Z,157.20
2018-06-21T08:12:53.007Z,142.20
2018-06-21T08:13:52.954Z,147.30
2018-06-21T08:14:52.928Z,130.00
2018-06-21T08:15:52.908Z,131.70
2018-06-21T08:16:52.883Z,127.90
2018-06-21T08:17:52.885Z,130.60
2018-06-21T08:18:52.841Z,129.30
2018-06-21T08:19:52.836Z,134.30
2018-06-21T08:20:52.816Z,134.00
2018-06-21T08:21:52.789Z,130.40
2018-06-21T08:22:52.741Z,131.90
2018-06-21T08:23:52.727Z,140.10
2018-06-21T08:24:52.721Z,130.00
2018-06-21T08:25:52.669Z,130.20
2018-06-21T08:26:52.759Z,122.10
2018-06-21T08:27:52.648Z,118.70
2018-06-21T08:28:52.619Z,123.50
2018-06-21T08:29:52.578Z,118.40
2018-06-21T08:30:52.583Z,114.90
2018-06-21T08:31:52.532Z,127.70
2018-06-21T08:32:52.506Z,127.00
2018-06-21T08:33:52.486Z,133.10
2018-06-21T08:34:52.461Z,124.10
2018-06-21T08:35:52.462Z,139.20
2018-06-21T08:36:52.418Z,133.50
2018-06-21T08:37:52.413Z,131.40
2018-06-21T08:38:52.407Z,137.40
2018-06-21T08:39:52.373Z,128.30
2018-06-21T08:40:52.345Z,133.40
2018-06-21T08:41:52.291Z,128.90
2018-06-21T08:42:52.281Z,128.40
2018-06-21T08:43:52.262Z,141.70
2018-06-21T08:44:52.235Z,151.20
2018-06-21T08:45:52.268Z,130.70
2018-06-21T08:46:52.178Z,127.50
2018-06-21T08:47:52.145Z,127.30
2018-06-21T08:48:52.130Z,126.70
2018-06-21T08:49:52.106Z,132.20
2018-06-21T08:50:52.108Z,131.10
2018-06-21T08:51:52.057Z,136.60
2018-06-21T08:52:52.048Z,134.70
2018-06-21T08:53:52.035Z,122.50
2018-06-21T08:54:51.990Z,128.30
2018-06-21T08:55:51.974Z,126.00
2018-06-21T08:56:51.965Z,107.30
2018-06-21T08:57:51.943Z,129.50
2018-06-21T08:58:51.908Z,130.30
2018-06-21T08:59:51.868Z,136.80
2018-06-21T09:00:51.845Z,124.90
2018-06-21T09:01:51.851Z,131.90
2018-06-21T09:02:51.827Z,119.90
2018-06-21T09:03:51.802Z,124.10
2018-06-21T09:04:51.752Z,124.20
2018-06-21T09:05:51.755Z,137.20
2018-06-21T09:06:51.729Z,122.10
2018-06-21T09:07:51.682Z,127.60
2018-06-21T09:08:51.651Z,122.00
2018-06-21T09:09:51.659Z,134.30
2018-06-21T09:10:51.633Z,123.60
2018-06-21T09:11:51.585Z,128.60
2018-06-21T09:12:51.564Z,132.20
2018-06-21T09:13:51.531Z,124.40
2018-06-21T09:14:51.510Z,125.20
2018-06-21T09:15:51.505Z,120.40
2018-06-21T09:16:51.487Z,133.30
2018-06-21T09:17:51.442Z,140.50
2018-06-21T09:18:51.448Z,137.80
2018-06-21T09:19:51.393Z,123.50
2018-06-21T09:20:51.402Z,137.00
2018-06-21T09:21:51.375Z,130.50
2018-06-21T09:22:51.327Z,141.90
2018-06-21T09:23:51.315Z,140.00
2018-06-21T09:24:51.285Z,138.20
2018-06-21T09:25:51.254Z,143.00
2018-06-21T09:26:51.225Z,145.20
2018-06-21T09:27:51.210Z,137.30
2018-06-21T09:28:51.187Z,135.90
2018-06-21T09:29:51.161Z,139.70
2018-06-21T09:30:51.161Z,133.40
2018-06-21T09:31:51.113Z,144.30
2018-06-21T09:32:51.089Z,143.90
2018-06-21T09:33:51.066Z,155.40
2018-06-21T09:34:51.042Z,136.50
2018-06-21T09:35:51.035Z,145.70
2018-06-21T09:36:51.013Z,150.10
2018-06-21T09:37:51.004Z,135.70
2018-06-21T09:38:50.958Z,147.90
2018-06-21T09:39:50.928Z,148.80
2018-06-21T09:40:50.909Z,151.90
2018-06-21T09:41:50.928Z,141.00
2018-06-21T09:42:50.879Z,149.40
2018-06-21T09:44:50.836Z,136.80
2018-06-21T09:45:50.811Z,123.20
2018-06-21T09:46:50.766Z,128.80
2018-06-21T09:47:50.762Z,134.50
2018-06-21T09:48:50.707Z,125.90
2018-06-21T09:49:50.700Z,139.10
2018-06-21T09:50:50.697Z,116.10
2018-06-21T09:51:50.640Z,141.20
2018-06-21T09:52:50.624Z,133.40
2018-06-21T09:53:50.596Z,141.30
2018-06-21T09:54:50.584Z,140.90
2018-06-21T09:55:50.577Z,132.40
2018-06-21T09:56:50.518Z,131.80
2018-06-21T09:57:50.555Z,136.60
2018-06-21T09:58:50.503Z,133.00
2018-06-21T09:59:50.477Z,131.60
2018-06-21T10:00:50.431Z,120.00
2018-06-21T10:01:50.399Z,118.80
2018-06-21T10:02:50.378Z,119.00
2018-06-21T10:03:50.388Z,113.80
2018-06-21T10:04:50.362Z,107.90
2018-06-21T10:05:50.342Z,108.90
2018-06-21T10:06:50.320Z,106.00
2018-06-21T10:07:50.265Z,108.30
2018-06-21T10:08:50.268Z,102.40
2018-06-21T10:09:50.231Z,103.80
2018-06-21T10:10:50.195Z,98.90
2018-06-21T10:11:50.194Z,102.50
2018-06-21T10:12:50.148Z,104.20
2018-06-21T10:13:50.146Z,101.00
2018-06-21T10:14:50.102Z,104.00
2018-06-21T10:15:50.128Z,109.80
2018-06-21T10:16:50.082Z,93.80
2018-06-21T10:17:50.053Z,95.40
2018-06-21T10:18:50.028Z,86.50
2018-06-21T10:19:50.053Z,106.30
2018-06-21T10:20:49.988Z,93.20
2018-06-21T10:21:49.942Z,91.20
2018-06-21T10:22:49.936Z,88.80
2018-06-21T10:23:49.914Z,89.90
2018-06-21T10:24:49.898Z,94.90
2018-06-21T10:25:49.842Z,84.30
2018-06-21T10:26:49.845Z,88.40
2018-06-21T10:27:49.799Z,89.30
2018-06-21T10:28:49.799Z,93.50
2018-06-21T10:29:49.779Z,82.50
2018-06-21T10:30:49.730Z,81.40
2018-06-21T10:31:49.736Z,83.10
2018-06-21T10:32:49.682Z,87.50
2018-06-21T10:33:49.689Z,84.70
2018-06-21T10:34:49.651Z,76.30
2018-06-21T10:35:49.618Z,79.70
2018-06-21T10:36:49.595Z,74.40
2018-06-21T10:37:49.585Z,78.20
2018-06-21T10:38:49.550Z,82.10
2018-06-21T10:39:49.525Z,77.50
2018-06-21T10:40:49.531Z,81.50
2018-06-21T10:41:49.480Z,76.20
2018-06-21T10:42:49.457Z,78.00
2018-06-21T10:43:49.448Z,80.30
2018-06-21T10:44:49.451Z,81.40
2018-06-21T10:45:49.422Z,83.40
2018-06-21T10:46:49.403Z,74.60
2018-06-21T10:47:49.375Z,75.80
2018-06-21T10:48:49.330Z,76.20
2018-06-21T10:49:49.311Z,79.60
2018-06-21T10:50:49.285Z,69.90
2018-06-21T10:51:49.290Z,76.50
2018-06-21T10:52:49.242Z,79.10
2018-06-21T10:53:49.220Z,78.70
2018-06-21T10:54:49.225Z,77.10
2018-06-21T10:55:49.179Z,77.60
2018-06-21T10:56:49.183Z,72.70
2018-06-21T10:57:49.161Z,77.00
2018-06-21T10:58:49.141Z,78.10
2018-06-21T10:59:49.115Z,69.30
2018-06-21T11:00:49.096Z,71.40
2018-06-21T11:01:49.066Z,71.90
2018-06-21T11:02:49.025Z,69.00
2018-06-21T11:03:49.021Z,74.90
2018-06-21T11:04:49.010Z,72.20
2018-06-21T11:05:48.995Z,74.70
2018-06-21T11:06:48.955Z,78.40
2018-06-21T11:07:48.953Z,76.70
2018-06-21T11:08:48.902Z,72.80
2018-06-21T11:09:48.908Z,78.50
2018-06-21T11:10:48.863Z,73.60
2018-06-21T11:11:48.851Z,75.90
2018-06-21T11:12:48.824Z,73.10
2018-06-21T11:13:48.799Z,67.30
2018-06-21T11:14:48.836Z,76.50
2018-06-21T11:15:48.755Z,73.10
2018-06-21T11:16:48.797Z,66.90
2018-06-21T11:17:48.744Z,77.90
2018-06-21T11:18:48.699Z,69.50
2018-06-21T11:19:48.708Z,70.60
2018-06-21T11:20:48.690Z,77.40
2018-06-21T11:21:48.644Z,74.70
2018-06-21T11:22:48.632Z,67.10
2018-06-21T11:23:48.598Z,69.50
2018-06-21T11:24:48.606Z,70.20
2018-06-21T11:25:48.566Z,72.50
2018-06-21T11:26:48.537Z,71.80
2018-06-21T11:27:48.583Z,66.60
2018-06-21T11:28:48.517Z,68.10
2018-06-21T11:29:48.514Z,70.80
2018-06-21T11:30:48.474Z,71.30
2018-06-21T11:31:48.445Z,69.30
2018-06-21T11:32:48.438Z,62.70
2018-06-21T11:33:48.409Z,71.30
2018-06-21T11:34:48.412Z,66.30
2018-06-21T11:35:48.400Z,64.80
2018-06-21T11:36:48.374Z,60.80
2018-06-21T11:37:48.357Z,62.20
2018-06-21T11:38:48.336Z,65.30
2018-06-21T11:39:48.301Z,62.70
2018-06-21T11:40:48.307Z,64.50
2018-06-21T11:41:48.254Z,61.80
2018-06-21T11:42:48.236Z,65.80
2018-06-21T11:43:48.249Z,63.20
2018-06-21T11:44:48.231Z,61.70
2018-06-21T11:45:48.186Z,55.10
2018-06-21T11:46:48.283Z,63.90
2018-06-21T11:47:48.171Z,57.10
2018-06-21T11:48:48.128Z,59.80
2018-06-21T11:49:48.121Z,53.20
2018-06-21T11:50:48.098Z,57.40
2018-06-21T11:51:48.101Z,56.00
2018-06-21T11:52:48.080Z,56.50
2018-06-21T11:53:48.036Z,52.00
2018-06-21T11:54:48.029Z,50.20
2018-06-21T11:55:48.001Z,45.50
2018-06-21T11:56:48.010Z,49.80
2018-06-21T11:57:47.997Z,49.70
2018-06-21T11:58:47.972Z,48.60
2018-06-21T11:59:47.946Z,50.90
2018-06-21T12:00:47.919Z,47.60
2018-06-21T12:01:47.941Z,49.70
2018-06-21T12:02:47.887Z,51.40
2018-06-21T12:03:47.885Z,50.50
2018-06-21T12:04:47.879Z,48.10
2018-06-21T12:05:47.823Z,45.00
2018-06-21T12:06:47.833Z,46.20
2018-06-21T12:07:47.792Z,50.70
2018-06-21T12:08:47.777Z,43.70
2018-06-21T12:09:47.759Z,41.50
2018-06-21T12:10:47.826Z,45.50
2018-06-21T12:11:47.775Z,41.00
2018-06-21T12:12:47.773Z,39.50
2018-06-21T12:13:47.767Z,40.80
2018-06-21T12:14:47.754Z,41.70
2018-06-21T12:15:47.708Z,40.30
2018-06-21T12:16:47.716Z,42.20
2018-06-21T12:17:47.672Z,41.90
2018-06-21T12:18:47.720Z,37.90
2018-06-21T12:19:47.645Z,35.60
2018-06-21T12:20:47.628Z,38.20
2018-06-21T12:21:47.581Z,36.40
2018-06-21T12:22:47.562Z,35.90
2018-06-21T12:23:47.544Z,39.70
2018-06-21T12:24:47.518Z,42.60
2018-06-21T12:25:47.489Z,38.90
2018-06-21T12:26:47.491Z,36.80
2018-06-21T12:27:47.477Z,36.20
2018-06-21T12:28:47.461Z,39.00
2018-06-21T12:29:47.678Z,35.00
2018-06-21T12:30:47.398Z,35.20
2018-06-21T12:31:47.413Z,38.30
2018-06-21T12:32:47.405Z,36.70
2018-06-21T12:33:47.352Z,35.20
2018-06-21T12:34:47.364Z,35.20
2018-06-21T12:35:47.332Z,38.50
2018-06-21T12:36:47.298Z,38.70
2018-06-21T12:37:47.279Z,37.90
2018-06-21T12:38:47.270Z,36.40
2018-06-21T12:39:47.263Z,37.20
2018-06-21T12:40:47.267Z,36.90